Time;durP1;ratioP1;P1;durP2;ratioP2;P2;SDS_P1;SDS_P2;PMS_P1;PMS_P2;Temp;Humidity;BMP_temperature;BMP_pressure;BME280_temperature;BME280_humidity;BME280_pressure;Samples;Min_cycle;Max_cycle;Signal;HPM_P1;HPM_P2
2022/06/28 00:00:35;;;;;;;7.97;1.13;;;17.90;95.80;;;;;;5117347;27;20489;-71
2022/06/28 00:03:00;;;;;;;5.15;1.83;;;17.80;95.90;;;;;;5120038;27;20519;-70
2022/06/28 00:05:26;;;;;;;2.47;1.05;;;17.80;96.00;;;;;;5119416;27;20625;-70
2022/06/28 00:07:52;;;;;;;2.08;1.13;;;17.90;96.10;;;;;;5123002;27;20043;-71
2022/06/28 00:10:18;;;;;;;3.63;1.30;;;17.80;96.20;;;;;;5119344;27;20118;-71
2022/06/28 00:12:43;;;;;;;2.53;1.52;;;17.80;96.20;;;;;;5121416;27;20532;-71
2022/06/28 00:17:57;;;;;;;2.20;1.23;;;17.70;96.40;;;;;;5121874;27;20093;-71
2022/06/28 00:20:23;;;;;;;3.47;2.17;;;17.70;96.40;;;;;;5117826;27;20044;-71
2022/06/28 00:22:49;;;;;;;2.13;0.93;;;17.70;96.50;;;;;;5122370;27;20701;-71
2022/06/28 00:25:15;;;;;;;2.75;1.20;;;17.70;96.50;;;;;;5123156;27;20603;-71
2022/06/28 00:27:41;;;;;;;1.98;0.82;;;17.70;96.60;;;;;;5119657;27;20035;-71
2022/06/28 00:30:08;;;;;;;4.72;1.05;;;17.60;96.70;;;;;;5120445;27;20039;-71
2022/06/28 00:32:34;;;;;;;2.97;1.35;;;17.70;96.80;;;;;;5121885;27;20053;-71
2022/06/28 00:35:00;;;;;;;2.05;1.23;;;17.70;96.80;;;;;;5123157;27;20083;-71
2022/06/28 00:37:27;;;;;;;2.13;0.70;;;17.60;96.90;;;;;;5120848;27;20044;-71
2022/06/28 00:39:53;;;;;;;5.10;1.75;;;17.60;97.00;;;;;;5120833;27;20076;-71
2022/06/28 00:42:19;;;;;;;2.88;1.30;;;17.60;97.00;;;;;;5120179;27;20096;-72
2022/06/28 00:44:46;;;;;;;2.22;0.93;;;17.60;97.10;;;;;;5121476;27;20122;-71
2022/06/28 00:47:13;;;;;;;6.32;1.50;;;17.50;97.20;;;;;;5122030;27;20047;-71
2022/06/28 00:49:40;;;;;;;3.15;1.92;;;17.50;97.30;;;;;;5122369;27;20087;-71
2022/06/28 00:52:07;;;;;;;1.58;0.93;;;17.50;97.30;;;;;;5118826;27;20094;-71
2022/06/28 00:54:33;;;;;;;3.17;0.88;;;17.40;97.30;;;;;;5118172;27;20492;-71
2022/06/28 00:56:59;;;;;;;2.75;0.90;;;17.50;97.50;;;;;;5119535;27;20039;-71
2022/06/28 00:59:25;;;;;;;3.63;1.02;;;17.40;97.50;;;;;;5122471;27;20047;-71
2022/06/28 01:01:51;;;;;;;2.05;1.23;;;17.40;97.60;;;;;;5116768;27;20050;-71
2022/06/28 01:04:17;;;;;;;5.78;1.38;;;17.40;97.70;;;;;;5119977;27;20039;-71
2022/06/28 01:06:44;;;;;;;1.55;1.10;;;17.30;98.00;;;;;;5119728;27;20055;-71
2022/06/28 01:09:10;;;;;;;3.15;1.50;;;17.40;97.80;;;;;;5139267;27;20078;-71
2022/06/28 01:11:35;;;;;;;1.52;0.73;;;17.30;97.90;;;;;;5122345;27;20036;-72
2022/06/28 01:14:06;;;;;;;4.10;1.00;;;17.30;97.90;;;;;;5122046;27;20050;-71
2022/06/28 01:16:33;;;;;;;4.95;1.50;;;17.30;98.00;;;;;;5122599;27;20585;-71
2022/06/28 01:18:58;;;;;;;2.60;0.90;;;17.30;98.10;;;;;;5118049;27;20501;-71
2022/06/28 01:21:30;;;;;;;3.47;1.10;;;17.20;98.20;;;;;;5121024;27;20040;-71
2022/06/28 01:23:57;;;;;;;3.75;1.25;;;17.20;98.30;;;;;;5118124;27;20042;-71
2022/06/28 01:26:25;;;;;;;2.25;0.95;;;17.20;98.40;;;;;;5120609;27;20073;-71
2022/06/28 01:28:52;;;;;;;1.25;0.80;;;17.20;98.40;;;;;;5117361;27;20827;-71
2022/06/28 01:31:20;;;;;;;2.22;0.98;;;17.20;98.50;;;;;;5117438;27;20622;-71
2022/06/28 01:33:46;;;;;;;1.45;1.35;;;17.20;98.60;;;;;;5121556;27;20040;-71
2022/06/28 01:36:12;;;;;;;1.35;0.90;;;17.10;98.60;;;;;;5118515;27;20035;-71
2022/06/28 01:38:38;;;;;;;1.50;0.80;;;17.10;98.70;;;;;;5123368;27;20043;-70
2022/06/28 01:41:05;;;;;;;1.92;0.85;;;17.10;98.80;;;;;;5118746;27;20043;-70
2022/06/28 01:43:32;;;;;;;1.55;0.90;;;17.10;98.80;;;;;;5117988;27;21779;-71
2022/06/28 01:45:59;;;;;;;2.22;1.20;;;17.10;98.90;;;;;;5120077;27;20035;-70
2022/06/28 01:48:25;;;;;;;3.63;1.27;;;17.00;99.00;;;;;;5120625;27;20105;-71
2022/06/28 01:50:54;;;;;;;1.88;1.20;;;17.00;99.10;;;;;;5121152;27;20043;-71
2022/06/28 01:53:21;;;;;;;6.18;1.40;;;17.00;99.10;;;;;;5119697;27;20031;-70
2022/06/28 01:55:47;;;;;;;2.70;1.20;;;17.00;99.20;;;;;;5122809;27;20581;-70
2022/06/28 01:58:13;;;;;;;1.85;1.10;;;17.00;99.30;;;;;;5116093;27;20072;-70
2022/06/28 02:00:39;;;;;;;1.90;0.98;;;17.00;99.40;;;;;;5118900;27;20128;-71
2022/06/28 02:03:05;;;;;;;2.88;0.88;;;17.00;99.40;;;;;;5120107;27;20114;-71
2022/06/28 02:05:32;;;;;;;3.28;2.15;;;16.90;99.50;;;;;;5118597;27;20056;-71
2022/06/28 02:07:58;;;;;;;3.75;1.02;;;16.90;99.60;;;;;;5119840;27;20044;-71
2022/06/28 02:10:28;;;;;;;1.67;1.15;;;16.90;99.70;;;;;;5120727;27;20111;-71
2022/06/28 02:12:54;;;;;;;2.53;1.13;;;16.90;99.80;;;;;;5120322;27;20117;-71
2022/06/28 02:15:19;;;;;;;4.35;1.25;;;16.80;99.80;;;;;;5121573;27;20500;-71
2022/06/28 02:17:45;;;;;;;4.63;0.98;;;16.80;99.80;;;;;;5119183;27;20822;-71
2022/06/28 02:20:12;;;;;;;3.15;0.90;;;16.80;99.90;;;;;;5118131;27;20071;-70
2022/06/28 02:22:38;;;;;;;5.18;0.95;;;16.80;99.90;;;;;;5120652;27;20031;-71
2022/06/28 02:25:05;;;;;;;2.30;1.08;;;16.80;99.90;;;;;;5119063;27;20046;-71
2022/06/28 02:27:31;;;;;;;3.22;1.00;;;16.80;99.90;;;;;;5116971;27;20078;-71
2022/06/28 02:29:56;;;;;;;1.80;1.00;;;16.70;99.90;;;;;;5116618;27;20092;-71
2022/06/28 02:32:22;;;;;;;2.30;0.80;;;16.70;99.90;;;;;;5119247;27;20043;-71
2022/06/28 02:40:22;;;;;;;2.58;1.00;;;16.70;99.90;;;;;;5119391;27;20539;-71
2022/06/28 02:42:52;;;;;;;1.90;1.80;;;16.60;99.90;;;;;;5116549;27;20264;-71
2022/06/28 02:45:19;;;;;;;3.72;1.10;;;16.60;99.90;;;;;;5117810;27;20187;-71
2022/06/28 02:47:45;;;;;;;1.25;0.88;;;16.60;99.90;;;;;;5116672;27;20031;-71
2022/06/28 02:50:11;;;;;;;2.17;1.05;;;16.60;99.90;;;;;;5122103;27;20035;-71
2022/06/28 02:52:37;;;;;;;2.97;1.92;;;16.60;99.90;;;;;;5124031;27;20032;-71
2022/06/28 02:55:03;;;;;;;1.73;0.93;;;16.60;99.90;;;;;;5123638;27;20046;-71
2022/06/28 02:57:29;;;;;;;3.00;1.40;;;16.60;99.90;;;;;;5125974;27;20055;-71
2022/06/28 02:59:55;;;;;;;2.30;1.13;;;16.50;99.90;;;;;;5123261;27;21006;-71
2022/06/28 03:02:21;;;;;;;1.52;0.65;;;16.50;99.90;;;;;;5124801;27;20086;-71
2022/06/28 03:04:47;;;;;;;2.75;1.00;;;16.50;99.90;;;;;;5123028;27;20065;-71
2022/06/28 03:07:13;;;;;;;1.13;0.80;;;16.40;99.90;;;;;;5107168;27;20047;-71
2022/06/28 03:09:38;;;;;;;1.92;1.20;;;16.40;99.90;;;;;;5121814;27;20048;-71
2022/06/28 03:12:06;;;;;;;2.47;1.13;;;16.40;99.90;;;;;;5122562;27;20031;-71
2022/06/28 03:14:32;;;;;;;1.17;0.95;;;16.30;99.90;;;;;;5124477;27;20081;-71
2022/06/28 03:16:58;;;;;;;5.57;1.98;;;16.40;99.90;;;;;;5123818;27;20328;-71
2022/06/28 03:19:24;;;;;;;1.98;1.13;;;16.40;99.90;;;;;;5121563;27;20038;-71
2022/06/28 03:21:50;;;;;;;4.05;1.15;;;16.40;99.90;;;;;;5120759;27;20046;-71
2022/06/28 03:24:16;;;;;;;4.18;1.38;;;16.40;99.90;;;;;;5121346;27;20043;-71
2022/06/28 03:26:42;;;;;;;2.58;1.05;;;16.30;99.90;;;;;;5122360;27;20578;-71
2022/06/28 03:29:09;;;;;;;1.10;0.80;;;16.30;99.90;;;;;;5123379;27;20038;-71
2022/06/28 03:31:35;;;;;;;2.10;1.20;;;16.30;99.90;;;;;;5121208;27;20154;-71
2022/06/28 03:34:01;;;;;;;4.43;1.10;;;16.20;99.90;;;;;;5121497;27;20045;-71
2022/06/28 03:36:26;;;;;;;1.58;0.98;;;16.20;99.90;;;;;;5122682;27;20076;-70
2022/06/28 03:38:53;;;;;;;3.25;1.15;;;16.20;99.90;;;;;;5121976;27;20044;-71
2022/06/28 03:41:24;;;;;;;2.80;0.98;;;16.20;99.90;;;;;;5123775;27;20535;-71
2022/06/28 03:43:51;;;;;;;1.25;1.00;;;16.10;99.90;;;;;;5121012;27;20371;-71
2022/06/28 03:46:17;;;;;;;0.88;0.80;;;16.10;99.90;;;;;;5118086;27;20105;-71
2022/06/28 03:48:44;;;;;;;1.70;0.80;;;16.10;99.90;;;;;;5124127;27;20576;-71
2022/06/28 03:51:11;;;;;;;2.45;1.05;;;16.10;99.90;;;;;;5119751;27;20043;-71
2022/06/28 03:53:37;;;;;;;2.05;1.20;;;16.10;99.90;;;;;;5125027;27;20077;-71
2022/06/28 03:56:03;;;;;;;1.70;1.13;;;16.10;99.90;;;;;;5122528;27;20049;-71
2022/06/28 03:58:29;;;;;;;1.85;1.00;;;16.10;99.90;;;;;;5118402;27;20042;-71
2022/06/28 04:00:55;;;;;;;4.38;1.27;;;16.10;99.90;;;;;;5121638;27;20065;-70
2022/06/28 04:03:21;;;;;;;6.55;1.38;;;16.10;99.90;;;;;;5119744;27;20113;-70
2022/06/28 04:05:47;;;;;;;3.97;1.15;;;16.10;99.90;;;;;;5121361;27;20081;-71
2022/06/28 04:08:12;;;;;;;3.75;1.20;;;16.10;99.90;;;;;;5121244;27;20039;-70
2022/06/28 04:10:39;;;;;;;1.50;1.10;;;16.10;99.90;;;;;;5123347;27;20580;-70
2022/06/28 04:13:05;;;;;;;3.67;1.10;;;16.10;99.90;;;;;;5123552;27;20040;-71
2022/06/28 04:15:31;;;;;;;1.83;0.95;;;16.10;99.90;;;;;;5121510;27;20509;-70
2022/06/28 04:17:57;;;;;;;1.70;1.10;;;16.10;99.90;;;;;;5120521;27;20487;-70
2022/06/28 04:20:23;;;;;;;1.30;0.90;;;16.10;99.90;;;;;;5125581;27;20035;-70
2022/06/28 04:22:50;;;;;;;3.92;1.20;;;16.10;99.90;;;;;;5122157;27;20066;-70
2022/06/28 04:25:15;;;;;;;3.78;1.02;;;16.10;99.90;;;;;;5122821;27;20244;-70
2022/06/28 04:27:41;;;;;;;3.10;1.13;;;16.10;99.90;;;;;;5117661;27;20042;-70
2022/06/28 04:30:07;;;;;;;1.17;0.90;;;16.10;99.90;;;;;;5121031;27;20035;-70
2022/06/28 04:32:33;;;;;;;0.95;0.80;;;16.10;99.90;;;;;;5122569;27;20031;-70
2022/06/28 04:34:59;;;;;;;4.00;1.38;;;16.10;99.90;;;;;;5121019;27;20044;-70
2022/06/28 04:37:25;;;;;;;4.65;1.58;;;16.20;99.90;;;;;;5120407;27;20035;-70
2022/06/28 04:39:51;;;;;;;2.13;1.10;;;16.20;99.90;;;;;;5123747;27;20079;-70
2022/06/28 04:42:18;;;;;;;1.95;1.10;;;16.20;99.90;;;;;;5118153;27;20681;-71
2022/06/28 04:44:44;;;;;;;4.10;1.27;;;16.20;99.90;;;;;;5121368;27;20031;-71
2022/06/28 04:47:10;;;;;;;4.82;1.30;;;16.20;99.90;;;;;;5116371;27;20549;-70
2022/06/28 04:49:36;;;;;;;3.55;1.73;;;16.30;99.90;;;;;;5114529;27;20529;-70
2022/06/28 04:52:03;;;;;;;4.35;1.42;;;16.20;99.90;;;;;;5124092;27;20127;-70
2022/06/28 04:54:28;;;;;;;1.75;0.98;;;16.30;99.90;;;;;;5119916;27;20042;-70
2022/06/28 04:56:54;;;;;;;3.67;1.15;;;16.30;99.90;;;;;;5136005;27;20073;-70
2022/06/28 04:59:20;;;;;;;4.47;1.60;;;16.30;99.90;;;;;;5118875;27;20517;-70
2022/06/28 05:01:46;;;;;;;2.38;1.20;;;16.30;99.90;;;;;;5121387;27;20043;-71
2022/06/28 05:04:12;;;;;;;1.70;0.98;;;16.30;99.90;;;;;;5122814;27;20055;-70
2022/06/28 05:06:37;;;;;;;2.78;1.15;;;16.30;99.90;;;;;;5116419;27;20156;-71
2022/06/28 05:09:04;;;;;;;2.03;1.10;;;16.40;99.90;;;;;;5121796;27;20085;-70
2022/06/28 05:11:29;;;;;;;5.28;1.13;;;16.30;99.90;;;;;;5118498;27;20047;-71
2022/06/28 05:13:56;;;;;;;1.23;0.90;;;16.40;99.90;;;;;;5121442;27;20514;-70
2022/06/28 05:16:22;;;;;;;8.27;2.15;;;16.40;99.90;;;;;;5117976;27;20043;-71
2022/06/28 05:18:48;;;;;;;5.10;1.90;;;16.40;99.90;;;;;;5122606;27;20043;-71
2022/06/28 05:21:13;;;;;;;3.15;1.17;;;16.50;99.90;;;;;;5119726;27;20903;-75
2022/06/28 05:23:39;;;;;;;6.30;1.52;;;16.40;99.90;;;;;;5120632;27;20043;-83
2022/06/28 05:26:05;;;;;;;8.45;1.77;;;16.40;99.90;;;;;;5118766;27;20048;-71
2022/06/28 05:28:31;;;;;;;3.97;1.80;;;16.40;99.90;;;;;;5122256;27;20392;-71
2022/06/28 05:30:57;;;;;;;2.10;1.10;;;16.50;99.90;;;;;;5104759;27;20118;-71
2022/06/28 05:33:23;;;;;;;4.32;1.83;;;16.50;99.90;;;;;;5116012;27;20192;-71
2022/06/28 05:35:49;;;;;;;6.18;1.30;;;16.50;99.90;;;;;;5119057;27;20410;-71
2022/06/28 05:38:15;;;;;;;9.52;1.70;;;16.50;99.90;;;;;;5120558;27;20190;-71
2022/06/28 05:40:41;;;;;;;4.40;1.52;;;16.50;99.90;;;;;;5120644;27;20031;-71
2022/06/28 05:43:07;;;;;;;4.18;1.40;;;16.60;99.90;;;;;;5120568;27;20039;-71
2022/06/28 05:45:33;;;;;;;3.00;1.17;;;16.60;99.90;;;;;;5119480;27;20040;-71
2022/06/28 05:47:59;;;;;;;6.20;1.45;;;16.60;99.90;;;;;;5118230;27;20038;-71
2022/06/28 05:50:24;;;;;;;3.38;1.30;;;16.50;99.90;;;;;;5119776;27;20050;-71
2022/06/28 05:52:51;;;;;;;4.57;1.40;;;16.60;99.90;;;;;;5118549;27;20039;-72
2022/06/28 05:55:17;;;;;;;2.25;1.23;;;16.70;99.90;;;;;;5120209;27;20050;-72
2022/06/28 05:57:42;;;;;;;4.88;1.50;;;16.70;99.90;;;;;;5119681;27;20063;-71
2022/06/28 06:00:09;;;;;;;4.28;1.65;;;16.70;99.90;;;;;;5117437;27;20142;-72
2022/06/28 06:02:35;;;;;;;3.33;1.20;;;16.70;99.90;;;;;;5118261;27;20043;-70
2022/06/28 06:05:02;;;;;;;5.38;1.40;;;16.70;99.90;;;;;;5115781;27;21455;-71
2022/06/28 06:07:29;;;;;;;2.25;1.10;;;16.80;99.90;;;;;;5117449;27;20035;-71
2022/06/28 06:09:55;;;;;;;3.30;1.52;;;16.80;99.90;;;;;;5118231;27;20829;-70
2022/06/28 06:12:21;;;;;;;2.53;1.60;;;16.80;99.90;;;;;;5103242;27;20542;-70
2022/06/28 06:14:47;;;;;;;4.88;1.50;;;16.80;99.90;;;;;;5121135;27;20045;-71
2022/06/28 06:17:13;;;;;;;2.38;1.10;;;16.80;99.90;;;;;;5116924;27;20096;-70
2022/06/28 06:19:39;;;;;;;3.15;1.60;;;16.80;99.90;;;;;;5119553;27;20185;-71
2022/06/28 06:22:05;;;;;;;2.88;1.30;;;16.90;99.90;;;;;;5118195;27;20580;-73
2022/06/28 06:24:30;;;;;;;4.25;1.35;;;16.90;99.90;;;;;;5117100;27;20054;-71
2022/06/28 06:26:56;;;;;;;2.05;1.58;;;16.90;99.90;;;;;;5118407;27;20043;-72
2022/06/28 06:29:22;;;;;;;3.67;1.00;;;16.90;99.90;;;;;;5116148;27;20043;-72
2022/06/28 06:31:48;;;;;;;9.23;1.50;;;17.00;99.90;;;;;;5123713;27;20190;-71
2022/06/28 06:34:14;;;;;;;2.78;1.33;;;16.90;99.90;;;;;;5122898;27;20047;-72
2022/06/28 06:36:41;;;;;;;4.68;1.45;;;17.00;99.90;;;;;;5108419;27;20593;-72
2022/06/28 06:39:07;;;;;;;5.07;1.88;;;17.00;99.90;;;;;;5123144;27;20039;-71
2022/06/28 06:41:34;;;;;;;3.78;1.60;;;17.00;99.90;;;;;;5121107;27;20051;-72
2022/06/28 06:44:00;;;;;;;2.22;0.95;;;17.10;99.90;;;;;;5124298;27;20043;-71
2022/06/28 06:46:26;;;;;;;3.97;1.35;;;17.00;99.90;;;;;;5124061;27;20040;-72
2022/06/28 06:48:52;;;;;;;2.70;1.55;;;17.00;99.90;;;;;;5123715;27;20100;-72
2022/06/28 06:51:18;;;;;;;3.97;1.70;;;17.10;99.90;;;;;;5123455;27;20044;-71
2022/06/28 06:53:44;;;;;;;4.18;1.52;;;17.10;99.90;;;;;;5123112;27;20043;-72
2022/06/28 06:56:10;;;;;;;3.17;1.08;;;17.10;99.90;;;;;;5123450;27;20035;-72
2022/06/28 06:58:36;;;;;;;1.85;1.15;;;17.10;99.90;;;;;;5124874;27;20048;-71
2022/06/28 07:01:02;;;;;;;5.70;1.92;;;17.10;99.90;;;;;;5123823;27;20532;-71
2022/06/28 07:03:28;;;;;;;5.80;1.70;;;17.10;99.90;;;;;;5123402;27;20619;-71
2022/06/28 07:05:54;;;;;;;2.33;1.40;;;17.20;99.90;;;;;;5124865;27;20055;-72
2022/06/28 07:08:20;;;;;;;4.43;1.40;;;17.20;99.90;;;;;;5124631;27;20031;-72
2022/06/28 07:10:47;;;;;;;4.47;1.30;;;17.20;99.90;;;;;;5106733;27;20050;-71
2022/06/28 07:13:12;;;;;;;3.65;1.45;;;17.20;99.90;;;;;;5122848;27;20035;-71
2022/06/28 07:15:38;;;;;;;6.50;1.98;;;17.20;99.90;;;;;;5120773;27;20509;-71
2022/06/28 07:18:04;;;;;;;17.02;1.77;;;17.20;99.90;;;;;;5121050;27;20039;-72
2022/06/28 07:20:30;;;;;;;2.72;1.25;;;17.30;99.90;;;;;;5121346;27;20035;-72
2022/06/28 07:22:56;;;;;;;3.78;1.75;;;17.30;99.90;;;;;;5117292;27;20087;-72
2022/06/28 07:25:22;;;;;;;6.03;2.22;;;17.30;99.90;;;;;;5120532;27;20085;-72
2022/06/28 07:27:47;;;;;;;4.45;1.52;;;17.30;99.90;;;;;;5117484;27;20032;-72
2022/06/28 07:30:13;;;;;;;5.78;2.97;;;17.30;99.90;;;;;;5120494;27;20039;-71
2022/06/28 07:32:39;;;;;;;7.72;1.70;;;17.30;99.90;;;;;;5120391;27;20116;-72
2022/06/28 07:35:06;;;;;;;3.97;1.08;;;17.40;99.90;;;;;;5121113;27;20035;-72
2022/06/28 07:37:33;;;;;;;7.50;1.60;;;17.40;99.90;;;;;;5119876;27;20687;-72
2022/06/28 07:39:59;;;;;;;2.88;1.13;;;17.40;99.90;;;;;;5120335;27;20095;-72
2022/06/28 07:42:24;;;;;;;5.50;2.13;;;17.40;99.90;;;;;;5122104;27;20042;-72
2022/06/28 07:44:50;;;;;;;5.50;1.50;;;17.40;99.90;;;;;;5119879;27;20089;-71
2022/06/28 07:47:16;;;;;;;3.50;1.45;;;17.40;99.90;;;;;;5118657;27;20570;-71
2022/06/28 07:52:36;;;;;;;2.28;1.30;;;17.50;99.90;;;;;;5121786;27;20499;-72
2022/06/28 07:55:05;;;;;;;6.82;1.52;;;17.50;99.90;;;;;;5120073;27;20141;-72
2022/06/28 07:57:31;;;;;;;2.55;1.40;;;17.50;99.90;;;;;;5115794;27;20040;-72
2022/06/28 07:59:56;;;;;;;5.53;1.35;;;17.50;99.90;;;;;;5117782;27;20048;-71
2022/06/28 08:02:23;;;;;;;3.47;1.45;;;17.60;99.90;;;;;;5121235;27;20039;-71
2022/06/28 08:04:49;;;;;;;5.97;2.20;;;17.60;99.90;;;;;;5119420;27;20043;-71
2022/06/28 08:07:15;;;;;;;6.18;1.45;;;17.60;99.90;;;;;;5124037;27;20063;-71
2022/06/28 08:09:41;;;;;;;3.15;1.15;;;17.70;99.90;;;;;;5122852;27;20035;-72
2022/06/28 08:12:07;;;;;;;5.18;1.27;;;17.70;99.90;;;;;;5118677;27;20054;-72
2022/06/28 08:14:33;;;;;;;2.47;1.70;;;17.70;99.90;;;;;;5119208;27;20070;-72
2022/06/28 08:16:59;;;;;;;6.38;2.47;;;17.70;99.90;;;;;;5121200;27;20521;-71
2022/06/28 08:19:25;;;;;;;6.63;1.83;;;17.70;99.90;;;;;;5121891;27;20048;-72
2022/06/28 08:21:51;;;;;;;3.08;1.90;;;17.70;99.90;;;;;;5121809;27;20205;-71
2022/06/28 08:24:17;;;;;;;3.53;1.20;;;17.80;99.90;;;;;;5119254;27;20564;-72
2022/06/28 08:26:43;;;;;;;7.68;1.52;;;17.80;99.90;;;;;;5122472;27;20047;-72
2022/06/28 08:29:10;;;;;;;4.97;1.50;;;17.80;99.90;;;;;;5119322;27;20050;-72
2022/06/28 08:31:36;;;;;;;2.05;1.10;;;17.80;99.90;;;;;;5122499;27;20146;-71
2022/06/28 08:34:02;;;;;;;3.17;1.15;;;17.90;99.90;;;;;;5122121;27;20477;-72
2022/06/28 08:36:28;;;;;;;5.38;1.20;;;17.90;99.90;;;;;;5121989;27;21129;-72
2022/06/28 08:38:54;;;;;;;2.42;1.00;;;17.90;99.90;;;;;;5118727;27;20088;-71
2022/06/28 08:41:20;;;;;;;2.70;1.42;;;17.90;99.90;;;;;;5118617;27;20048;-71
2022/06/28 08:43:46;;;;;;;3.95;1.17;;;17.90;99.90;;;;;;5120825;27;20044;-72
2022/06/28 08:46:14;;;;;;;3.30;1.25;;;17.90;99.90;;;;;;5117020;27;20477;-72
2022/06/28 08:48:43;;;;;;;4.65;1.55;;;17.90;99.90;;;;;;5119707;27;20040;-72
2022/06/28 08:51:10;;;;;;;5.25;1.25;;;17.90;99.90;;;;;;5120815;27;20495;-72
2022/06/28 08:53:39;;;;;;;2.67;1.10;;;18.00;99.90;;;;;;5120808;27;20042;-72
2022/06/28 08:56:08;;;;;;;3.17;1.25;;;18.10;99.90;;;;;;5106067;27;20040;-72
2022/06/28 08:58:33;;;;;;;6.88;1.75;;;18.10;99.90;;;;;;5123639;27;20776;-72
2022/06/28 09:00:59;;;;;;;3.05;1.48;;;18.10;99.90;;;;;;5104929;27;20573;-72
2022/06/28 09:03:25;;;;;;;4.63;1.83;;;18.20;99.90;;;;;;5138256;27;20094;-71
2022/06/28 09:05:51;;;;;;;5.63;2.30;;;18.30;99.90;;;;;;5121297;27;20192;-72
2022/06/28 09:08:17;;;;;;;5.57;1.17;;;18.30;99.90;;;;;;5123581;27;20661;-72
2022/06/28 09:10:43;;;;;;;2.92;1.27;;;18.30;99.90;;;;;;5121422;27;20091;-72
2022/06/28 09:13:12;;;;;;;3.40;1.10;;;18.40;99.90;;;;;;5120161;27;20039;-72
2022/06/28 09:15:53;;;;;;;3.05;1.40;;;18.40;99.90;;;;;;5123559;27;20560;-72
2022/06/28 09:18:21;;;;;;;3.78;1.05;;;18.40;99.90;;;;;;5121741;27;20592;-72
2022/06/28 09:20:52;;;;;;;2.92;1.13;;;18.40;99.90;;;;;;5123612;27;20050;-72
2022/06/28 09:23:26;;;;;;;3.13;1.13;;;18.40;99.90;;;;;;5124328;27;20039;-72
2022/06/28 09:25:54;;;;;;;4.57;1.13;;;18.50;99.90;;;;;;5118481;27;20464;-71
2022/06/28 09:28:28;;;;;;;2.40;0.93;;;18.50;99.90;;;;;;5117897;27;20040;-71
2022/06/28 09:31:13;;;;;;;1.80;1.00;;;18.70;99.90;;;;;;5117005;27;20669;-72
2022/06/28 09:33:39;;;;;;;6.32;1.40;;;18.80;99.90;;;;;;5119411;27;20093;-71
2022/06/28 09:36:09;;;;;;;4.55;1.17;;;18.80;99.90;;;;;;5119852;27;20044;-72
2022/06/28 09:38:34;;;;;;;5.07;1.13;;;18.90;99.90;;;;;;5121207;27;20831;-71
2022/06/28 09:41:00;;;;;;;2.85;1.20;;;19.10;99.90;;;;;;5118670;27;20389;-72
2022/06/28 09:43:34;;;;;;;1.40;1.00;;;19.30;99.90;;;;;;5120765;27;20355;-71
2022/06/28 09:46:04;;;;;;;4.43;1.10;;;19.40;99.90;;;;;;5119284;27;20043;-71
2022/06/28 09:48:36;;;;;;;2.80;0.90;;;19.50;99.90;;;;;;5118977;27;20525;-72
2022/06/28 09:51:02;;;;;;;3.00;1.20;;;19.60;99.90;;;;;;5119976;27;21001;-71
2022/06/28 09:53:30;;;;;;;2.55;1.20;;;19.50;99.90;;;;;;5121333;27;20055;-72
2022/06/28 09:56:05;;;;;;;1.85;1.13;;;19.50;99.90;;;;;;5118786;27;20081;-73
2022/06/28 09:58:31;;;;;;;2.53;0.98;;;19.50;99.90;;;;;;5118753;27;20044;-72
2022/06/28 10:00:58;;;;;;;3.50;1.17;;;19.60;99.90;;;;;;5120352;27;20074;-72
2022/06/28 10:03:24;;;;;;;5.78;1.55;;;19.70;99.90;;;;;;5103752;27;20052;-72
2022/06/28 10:05:50;;;;;;;4.28;0.80;;;19.80;99.90;;;;;;5122129;27;21763;-80
2022/06/28 10:08:18;;;;;;;1.77;0.95;;;19.90;99.90;;;;;;5120106;27;20073;-72
2022/06/28 10:10:45;;;;;;;6.25;1.20;;;19.90;99.90;;;;;;5119498;27;20044;-72
2022/06/28 10:16:18;;;;;;;3.17;1.00;;;19.90;99.90;;;;;;5114763;27;20052;-73
2022/06/28 10:18:45;;;;;;;4.18;1.15;;;19.90;99.90;;;;;;5118487;27;20047;-72
2022/06/28 10:21:11;;;;;;;2.50;0.90;;;20.00;99.90;;;;;;5119972;27;21182;-73
2022/06/28 10:23:42;;;;;;;1.90;1.08;;;20.00;99.90;;;;;;5100479;27;20141;-73
2022/06/28 10:26:11;;;;;;;8.52;1.75;;;20.10;99.90;;;;;;5117691;27;20043;-73
2022/06/28 10:28:45;;;;;;;0.95;0.80;;;20.20;99.90;;;;;;5120632;27;20076;-73
2022/06/28 10:31:25;;;;;;;2.28;0.90;;;20.30;99.90;;;;;;5123026;27;20467;-73
2022/06/28 10:34:00;;;;;;;2.22;1.30;;;20.30;99.90;;;;;;5125476;27;20047;-73
2022/06/28 10:36:28;;;;;;;3.03;1.67;;;20.20;99.90;;;;;;5123023;27;20040;-73
2022/06/28 10:39:09;;;;;;;2.67;1.40;;;20.20;99.90;;;;;;5124479;27;20103;-73
2022/06/28 10:42:01;;;;;;;3.13;1.85;;;20.20;99.90;;;;;;5107357;27;20040;-74
2022/06/28 10:44:43;;;;;;;3.30;1.60;;;20.20;99.90;;;;;;5120316;27;20552;-74
2022/06/28 10:47:12;;;;;;;2.85;1.30;;;20.20;99.90;;;;;;5122974;27;20039;-73
2022/06/28 10:49:50;;;;;;;6.60;1.88;;;20.40;99.90;;;;;;5124007;27;20214;-74
2022/06/28 10:52:19;;;;;;;4.03;1.00;;;20.50;99.90;;;;;;5120818;27;20501;-73
2022/06/28 10:54:56;;;;;;;5.47;1.60;;;20.60;99.90;;;;;;5138369;27;20036;-73
2022/06/28 10:57:26;;;;;;;5.70;1.50;;;20.60;99.90;;;;;;5121542;27;20047;-73
2022/06/28 10:59:56;;;;;;;2.70;1.20;;;20.70;99.90;;;;;;5125184;27;20035;-73
2022/06/28 11:02:23;;;;;;;4.35;1.80;;;20.90;99.90;;;;;;5123748;27;20090;-73
2022/06/28 11:05:05;;;;;;;3.78;1.75;;;20.80;99.10;;;;;;5122856;27;20530;-74
2022/06/28 11:07:33;;;;;;;4.07;1.77;;;20.80;98.80;;;;;;5123173;27;20101;-73
2022/06/28 11:09:59;;;;;;;1.15;1.05;;;20.70;98.60;;;;;;5110000;27;20051;-72
2022/06/28 11:12:28;;;;;;;1.55;0.90;;;20.60;98.50;;;;;;5127925;27;20040;-73
2022/06/28 11:15:03;;;;;;;1.63;1.00;;;20.70;98.00;;;;;;5128761;27;21422;-73
2022/06/28 11:17:30;;;;;;;1.80;0.68;;;20.60;97.70;;;;;;5128346;27;20036;-73
2022/06/28 11:20:00;;;;;;;2.63;1.20;;;20.60;97.40;;;;;;5127632;27;20055;-73
2022/06/28 11:22:28;;;;;;;3.58;1.23;;;20.50;96.80;;;;;;5128096;27;20040;-73
2022/06/28 11:24:57;;;;;;;2.30;1.27;;;20.60;96.80;;;;;;5128916;27;20551;-73
2022/06/28 11:27:24;;;;;;;2.63;1.02;;;20.50;96.70;;;;;;5127614;27;20094;-73
2022/06/28 11:29:51;;;;;;;1.20;1.10;;;20.40;96.60;;;;;;5124822;27;20788;-73
2022/06/28 11:32:22;;;;;;;2.88;0.98;;;20.30;96.70;;;;;;5126414;27;20074;-73
2022/06/28 11:34:59;;;;;;;4.13;1.05;;;20.40;96.70;;;;;;5109014;27;20043;-73
2022/06/28 11:37:25;;;;;;;2.28;1.13;;;20.40;96.70;;;;;;5125641;27;20134;-73
2022/06/28 11:40:00;;;;;;;2.67;0.95;;;20.40;96.80;;;;;;5127187;27;20857;-73
2022/06/28 11:42:27;;;;;;;5.18;1.50;;;20.40;96.70;;;;;;5126626;27;20040;-73
2022/06/28 11:44:53;;;;;;;6.78;1.10;;;20.40;96.40;;;;;;5128296;27;20123;-73
2022/06/28 11:47:20;;;;;;;2.72;0.88;;;20.40;96.30;;;;;;5127530;27;20043;-73
2022/06/28 11:50:10;;;;;;;3.42;1.70;;;20.50;95.90;;;;;;5126242;27;20040;-73
2022/06/28 11:52:45;;;;;;;2.05;1.30;;;20.60;95.90;;;;;;5120865;27;20565;-73
2022/06/28 11:55:11;;;;;;;2.17;1.02;;;20.60;95.80;;;;;;5121611;27;20035;-73
2022/06/28 11:57:39;;;;;;;1.90;1.02;;;20.80;96.00;;;;;;5117291;27;20044;-73
2022/06/28 12:00:06;;;;;;;4.78;1.42;;;21.00;96.10;;;;;;5123121;27;20038;-73
2022/06/28 12:02:51;;;;;;;2.03;1.15;;;21.10;95.90;;;;;;5120568;27;20089;-73
2022/06/28 12:05:34;;;;;;;2.63;0.95;;;21.20;95.20;;;;;;5120438;27;20425;-73
2022/06/28 12:08:01;;;;;;;1.05;0.60;;;21.20;94.90;;;;;;5118812;27;20559;-73
2022/06/28 12:10:30;;;;;;;0.95;0.70;;;21.10;94.80;;;;;;5121257;27;20044;-73
2022/06/28 12:12:58;;;;;;;4.38;0.80;;;21.10;94.60;;;;;;5117983;27;20127;-73
2022/06/28 12:15:29;;;;;;;1.60;0.60;;;21.10;94.60;;;;;;5122256;27;20333;-73
2022/06/28 12:18:14;;;;;;;5.95;0.85;;;21.20;94.30;;;;;;5116629;27;20043;-73
2022/06/28 12:20:55;;;;;;;2.78;1.30;;;21.20;94.30;;;;;;5122332;27;20487;-73
2022/06/28 12:23:21;;;;;;;1.25;0.77;;;21.20;94.00;;;;;;5118138;27;20525;-73
2022/06/28 12:25:56;;;;;;;3.13;1.70;;;21.20;93.80;;;;;;5122038;27;20089;-73
2022/06/28 12:28:22;;;;;;;1.98;1.00;;;21.30;93.60;;;;;;5120284;27;20046;-73
2022/06/28 12:30:48;;;;;;;3.50;1.35;;;21.30;93.30;;;;;;5121895;27;20085;-73
2022/06/28 12:33:14;;;;;;;3.58;1.10;;;21.20;93.00;;;;;;5120832;27;20531;-73
2022/06/28 12:35:39;;;;;;;3.70;0.90;;;21.20;92.80;;;;;;5121920;27;20527;-73
2022/06/28 12:38:05;;;;;;;1.73;1.02;;;21.20;92.70;;;;;;5120953;27;20047;-74
2022/06/28 12:40:31;;;;;;;2.40;1.30;;;21.30;92.80;;;;;;5122045;27;20408;-73
2022/06/28 12:42:57;;;;;;;5.38;1.25;;;21.50;92.80;;;;;;5123136;27;20063;-73
2022/06/28 12:45:23;;;;;;;3.03;1.77;;;21.60;92.70;;;;;;5123095;27;20067;-73
2022/06/28 12:47:49;;;;;;;1.88;1.05;;;21.60;92.40;;;;;;5123056;27;20573;-73
2022/06/28 12:50:16;;;;;;;3.67;0.90;;;21.60;92.20;;;;;;5121279;27;20124;-73
2022/06/28 12:52:43;;;;;;;1.85;0.77;;;21.60;92.20;;;;;;5120513;27;20040;-74
2022/06/28 12:55:13;;;;;;;4.32;1.20;;;21.70;92.20;;;;;;5122891;27;20043;-74
2022/06/28 12:57:40;;;;;;;1.48;0.82;;;21.70;92.10;;;;;;5121446;27;20078;-73
2022/06/28 13:00:11;;;;;;;2.38;0.90;;;21.80;92.20;;;;;;5106056;27;21399;-73
2022/06/28 13:02:36;;;;;;;1.98;0.82;;;21.90;92.10;;;;;;5119065;27;20143;-73